createdAt,value
2024-02-19T00:00:00.674Z,147
2024-02-19T00:10:00.629Z,144
2024-02-19T00:20:00.608Z,142
2024-02-19T00:30:00.657Z,147
2024-02-19T00:40:00.683Z,142
2024-02-19T00:50:00.984Z,120
2024-02-19T01:00:00.708Z,129
2024-02-19T01:10:00.622Z,122
2024-02-19T01:20:00.745Z,117
2024-02-19T01:30:00.618Z,127
2024-02-19T01:40:00.735Z,132
2024-02-19T01:50:00.736Z,134
2024-02-19T02:00:00.903Z,113
2024-02-19T02:10:00.650Z,142
2024-02-19T02:20:00.864Z,117
2024-02-19T02:30:00.621Z,107
2024-02-19T02:40:00.759Z,163
2024-02-19T02:50:00.686Z,136
2024-02-19T03:00:00.667Z,199
2024-02-19T03:10:00.812Z,207
2024-02-19T03:20:00.624Z,204
2024-02-19T03:30:00.809Z,184
2024-02-19T03:40:00.774Z,186
2024-02-19T03:50:00.652Z,177
2024-02-19T04:00:00.727Z,250
2024-02-19T04:10:00.704Z,200
2024-02-19T04:20:00.580Z,195
2024-02-19T04:30:00.651Z,196
2024-02-19T04:40:00.665Z,197
2024-02-19T04:50:01.214Z,206
2024-02-19T05:00:01.690Z,210
2024-02-19T05:10:00.680Z,239
2024-02-19T05:20:00.837Z,212
2024-02-19T05:30:00.648Z,208
2024-02-19T05:40:00.708Z,209
2024-02-19T05:50:00.741Z,211
2024-02-19T06:00:00.990Z,235
2024-02-19T06:10:00.667Z,232
2024-02-19T06:20:00.763Z,225
2024-02-19T06:30:00.662Z,231
2024-02-19T06:40:00.649Z,246
2024-02-19T06:50:00.805Z,225
2024-02-19T07:00:00.866Z,226
2024-02-19T07:10:00.612Z,222
2024-02-19T07:20:00.911Z,199
2024-02-19T07:30:00.802Z,204
2024-02-19T07:40:00.877Z,226
2024-02-19T07:50:00.696Z,208
2024-02-19T08:00:00.667Z,199
2024-02-19T08:10:00.602Z,202
2024-02-19T08:20:00.946Z,197
2024-02-19T08:30:00.679Z,223
2024-02-19T08:40:00.675Z,219
2024-02-19T08:50:00.722Z,209
2024-02-19T09:00:00.714Z,257
2024-02-19T09:10:00.615Z,236
2024-02-19T09:20:00.893Z,237
2024-02-19T09:30:00.533Z,236
2024-02-19T09:40:00.770Z,263
2024-02-19T09:50:00.733Z,253
2024-02-19T10:00:00.646Z,252
2024-02-19T10:10:00.635Z,222
2024-02-19T10:20:00.769Z,166
2024-02-19T10:30:00.667Z,98
2024-02-19T10:40:00.592Z,112
2024-02-19T10:50:01.311Z,125
2024-02-19T11:00:00.625Z,103
2024-02-19T11:10:00.729Z,112
2024-02-19T11:20:00.807Z,95
2024-02-19T11:30:00.706Z,90
2024-02-19T11:40:00.663Z,78
2024-02-19T13:10:00.740Z,98
2024-02-19T13:20:00.880Z,18
2024-02-19T13:30:00.655Z,316
2024-02-19T13:40:00.715Z,183
2024-02-19T13:50:00.793Z,33
2024-02-19T14:00:00.686Z,37
2024-02-19T14:10:00.566Z,33
2024-02-19T14:20:00.941Z,70
2024-02-19T14:30:00.588Z,100
2024-02-19T14:40:00.691Z,46
2024-02-19T14:50:02.095Z,99
2024-02-19T15:00:00.633Z,62
2024-02-19T15:10:00.588Z,106
2024-02-19T15:20:01.160Z,111
2024-02-19T15:30:00.639Z,100
2024-02-19T15:40:00.466Z,97
2024-02-19T15:50:00.781Z,89
2024-02-19T16:00:00.509Z,204
2024-02-19T16:10:00.620Z,114
2024-02-19T16:20:00.592Z,118
2024-02-19T16:30:00.443Z,123
2024-02-19T16:40:00.638Z,140
2024-02-19T16:50:00.763Z,385
2024-02-19T17:00:00.477Z,437
2024-02-19T17:10:00.551Z,116
2024-02-19T17:20:00.678Z,165
2024-02-19T17:30:00.488Z,210
2024-02-19T17:40:00.672Z,313
2024-02-19T17:50:00.663Z,496
2024-02-19T18:00:00.518Z,494
2024-02-19T18:10:00.522Z,489
2024-02-19T18:20:00.636Z,412
2024-02-19T18:30:00.478Z,365
2024-02-19T18:40:00.513Z,77
2024-02-19T18:50:00.692Z,79
2024-02-19T19:00:00.507Z,44
2024-02-19T19:10:00.542Z,105
2024-02-19T19:20:00.545Z,10
2024-02-19T19:30:00.478Z,11
2024-02-19T19:40:00.634Z,7
2024-02-19T19:50:00.564Z,47
2024-02-19T20:00:00.530Z,91
2024-02-19T20:10:00.532Z,11
2024-02-19T20:20:00.595Z,29
2024-02-19T20:30:00.447Z,208
2024-02-19T20:40:00.617Z,168
2024-02-19T20:50:00.766Z,117
2024-02-19T21:00:00.512Z,169
2024-02-19T21:10:00.584Z,160
2024-02-19T21:20:00.916Z,173
2024-02-19T21:30:00.518Z,174
2024-02-19T21:40:00.645Z,91
2024-02-19T21:50:00.647Z,158
2024-02-19T22:00:00.558Z,231
2024-02-19T22:10:01.409Z,150
2024-02-19T22:20:00.650Z,18
2024-02-19T22:30:00.481Z,77
2024-02-19T22:40:00.510Z,25
2024-02-19T22:50:00.617Z,11
2024-02-19T23:00:00.445Z,8
2024-02-19T23:10:00.478Z,15
2024-02-19T23:20:00.610Z,34
2024-02-19T23:30:00.472Z,10
2024-02-19T23:40:00.881Z,21
2024-02-19T23:50:00.575Z,4
